Martinville, Arkansas
Current Conditions -  °F | °C
As of 2:35 AM on Monday 24 Nov 2014 (Local Time) from KCCA Reporting Station
Few Clouds Few Clouds  
Wind Chill: 43°   Ceiling: Unl
Heat Index: 48°   Visibility: 10mi
Dew Point: 39°   Wind: 13mph
Humidity: 71%   Direction: 300°WNW
Pressure: 29.59"   Gusts: 22mph
Location:  35.3032°N, 92.4407°W
Report Text: KCCA 240835Z AUTO 30011G19KT 10SM FEW035 09/04 A2959 RMK AO2
Loading
Personal Weather Stations






























Interactive Weather Map New forecast layout! Learn more

10-Day Weather Forecast

Advertisements
Track Severe Weather on mobile